Terminal Aerodrome Forecast
Issued by NWS Wilmington, OH

Current Version | Previous Version | Graphics & Text | Print | Product List | Glossary On
Versions: 1 2 3 4 5 6 7 8 9 10 11 12 13 14 15 16 17
000
FTUS41 KILN 200539
TAFILN
TAF
KILN 200539Z 2006/2106 22005KT P6SM SCT080
     FM200900 25006KT P6SM SKC
     FM201400 27010KT P6SM SKC
     FM201700 26011KT P6SM SCT060
     FM210000 20003KT P6SM SCT200=

USA.gov is the U.S. government's official web portal to all federal, state and local government web resources and services.